Viking Queen — WDB9919 — position and weather

sailwx.info

Track history (hours):
 
Tides and Currents Weather Stations Pressure Air Temp Water Temp Dewpoint Dewpoint Depression Visibility Wind Speed Wind Dir Waves Ship Positions

Viking Queen

Owner: American River Transportation Company, St Louis, MO. More information available from US FCC via Universal Licensing System and Coast Guard Vessel Documentation Center.

Last reported at 2015-May-26 16:19 UTC. Time now 2015-May-27 13:54 UTC.
Position N 30°57' W 091°40'.

; draft 3.2 m.

Type: Towing. MMSI: 366985050.

Date/timePositionNaut miles runAvg speedWind from/ knotsBaromVisibWave heightAir tempDewpointWater temp
2015-May-26 16:19N 30°57' W 091°40'13 3.6
2015-May-26 12:33N 30°45' W 091°35'6 5.4
2015-May-26 11:29N 30°44' W 091°28'2 2.6
2015-May-26 10:32N 30°45' W 091°25'4 4.1
2015-May-26 09:33N 30°43' W 091°21'5 5.2
2015-May-26 08:33N 30°39' W 091°18'4 4.3
2015-May-26 07:33N 30°34' W 091°18'4 3.7
2015-May-26 06:33N 30°32' W 091°15'2 1.5
2015-May-26 05:33N 30°31' W 091°15'2 1.9
2015-May-26 04:33N 30°31' W 091°13'5 5.0
2015-May-26 03:33N 30°26' W 091°12'3 2.5
2015-May-26 02:33N 30°24' W 091°12'0 0.0
2015-May-26 01:33N 30°24' W 091°12'0 0.3
2015-May-26 00:33N 30°24' W 091°13'3 3.0
2015-May-25 23:31N 30°21' W 091°12'2 1.5
2015-May-25 22:27N 30°19' W 091°11'3 2.4
2015-May-25 21:04N 30°17' W 091°09'  
2015-May-23 13:07N 30°12' W 091°10'4 7.6
2015-May-23 12:33N 30°16' W 091°07'6 5.7
2015-May-23 11:31N 30°19' W 091°12'1 1.5
2015-May-23 10:33N 30°21' W 091°12'4 3.7
2015-May-23 09:33N 30°24' W 091°12'0 0.0
2015-May-23 08:33N 30°24' W 091°12'0 0.0
2015-May-23 07:33N 30°24' W 091°12'1 0.6
2015-May-23 06:33N 30°25' W 091°12'6 6.3
2015-May-23 05:33N 30°31' W 091°12'4 4.0
2015-May-23 04:33N 30°31' W 091°17'4 3.7
2015-May-23 03:33N 30°34' W 091°18'4 4.0
2015-May-23 02:33N 30°38' W 091°18'8 8.3
2015-May-23 01:32N 30°45' W 091°23'  
Track history (hours):
 
Tides and Currents Weather Stations Pressure Air Temp Water Temp Dewpoint Dewpoint Depression Visibility Wind Speed Wind Dir Waves Ship Positions

Viking Queen

Owner: American River Transportation Company, St Louis, MO. More information available from US FCC via Universal Licensing System and Coast Guard Vessel Documentation Center.

Last reported at 2015-May-26 16:19 UTC. Time now 2015-May-27 13:54 UTC.
Position N 30°57' W 091°40'.

; draft 3.2 m.

Type: Towing. MMSI: 366985050.

Date/timePositionNaut miles runAvg speedWind from/ knotsBaromVisibWave heightAir tempDewpointWater temp
2015-May-26 16:19N 30°57' W 091°40'13 3.6
2015-May-26 12:33N 30°45' W 091°35'6 5.4
2015-May-26 11:29N 30°44' W 091°28'2 2.6
2015-May-26 10:32N 30°45' W 091°25'4 4.1
2015-May-26 09:33N 30°43' W 091°21'5 5.2
2015-May-26 08:33N 30°39' W 091°18'4 4.3
2015-May-26 07:33N 30°34' W 091°18'4 3.7
2015-May-26 06:33N 30°32' W 091°15'2 1.5
2015-May-26 05:33N 30°31' W 091°15'2 1.9
2015-May-26 04:33N 30°31' W 091°13'5 5.0
2015-May-26 03:33N 30°26' W 091°12'3 2.5
2015-May-26 02:33N 30°24' W 091°12'0 0.0
2015-May-26 01:33N 30°24' W 091°12'0 0.3
2015-May-26 00:33N 30°24' W 091°13'3 3.0
2015-May-25 23:31N 30°21' W 091°12'2 1.5
2015-May-25 22:27N 30°19' W 091°11'3 2.4
2015-May-25 21:04N 30°17' W 091°09'  
2015-May-23 13:07N 30°12' W 091°10'4 7.6
2015-May-23 12:33N 30°16' W 091°07'6 5.7
2015-May-23 11:31N 30°19' W 091°12'1 1.5
2015-May-23 10:33N 30°21' W 091°12'4 3.7
2015-May-23 09:33N 30°24' W 091°12'0 0.0
2015-May-23 08:33N 30°24' W 091°12'0 0.0
2015-May-23 07:33N 30°24' W 091°12'1 0.6
2015-May-23 06:33N 30°25' W 091°12'6 6.3
2015-May-23 05:33N 30°31' W 091°12'4 4.0
2015-May-23 04:33N 30°31' W 091°17'4 3.7
2015-May-23 03:33N 30°34' W 091°18'4 4.0
2015-May-23 02:33N 30°38' W 091°18'8 8.3
2015-May-23 01:32N 30°45' W 091°23'  

Dump ship's entire track history